sensor_id;sensor_type;location;lat;lon;timestamp;pressure;altitude;pressure_sealevel;temperature
37414;BMP280;23279;46.472;30.760;2023-09-08T00:01:55;78516.22;;;-146.33
37414;BMP280;23279;46.472;30.760;2023-09-08T00:04:20;78528.44;;;-146.33
37414;BMP280;23279;46.472;30.760;2023-09-08T00:06:46;78532.50;;;-146.33
37414;BMP280;23279;46.472;30.760;2023-09-08T00:09:11;78538.63;;;-146.33
37414;BMP280;23279;46.472;30.760;2023-09-08T00:11:37;78538.63;;;-146.33
37414;BMP280;23279;46.472;30.760;2023-09-08T00:14:02;78528.44;;;-146.33
37414;BMP280;23279;46.472;30.760;2023-09-08T00:16:29;78548.78;;;-146.33
37414;BMP280;23279;46.472;30.760;2023-09-08T00:18:55;78546.75;;;-146.33
37414;BMP280;23279;46.472;30.760;2023-09-08T00:21:20;78556.94;;;-146.33
37414;BMP280;23279;46.472;30.760;2023-09-08T00:23:46;78556.94;;;-146.33
37414;BMP280;23279;46.472;30.760;2023-09-08T00:26:11;78548.78;;;-146.33
37414;BMP280;23279;46.472;30.760;2023-09-08T00:28:39;78558.97;;;-146.33
37414;BMP280;23279;46.472;30.760;2023-09-08T00:31:05;78561.00;;;-146.33
37414;BMP280;23279;46.472;30.760;2023-09-08T00:33:30;78556.94;;;-146.33
37414;BMP280;23279;46.472;30.760;2023-09-08T00:35:55;78563.03;;;-146.33
37414;BMP280;23279;46.472;30.760;2023-09-08T00:38:22;78569.16;;;-146.33
37414;BMP280;23279;46.472;30.760;2023-09-08T00:40:48;78573.22;;;-146.33
37414;BMP280;23279;46.472;30.760;2023-09-08T00:43:14;78569.16;;;-146.33
37414;BMP280;23279;46.472;30.760;2023-09-08T00:45:41;78585.44;;;-146.33
37414;BMP280;23279;46.472;30.760;2023-09-08T00:48:08;78583.41;;;-146.33
37414;BMP280;23279;46.472;30.760;2023-09-08T00:50:35;78603.75;;;-146.33
37414;BMP280;23279;46.472;30.760;2023-09-08T00:53:03;78609.84;;;-146.33
37414;BMP280;23279;46.472;30.760;2023-09-08T00:55:28;78611.88;;;-146.33
37414;BMP280;23279;46.472;30.760;2023-09-08T00:57:54;78618.00;;;-146.33
37414;BMP280;23279;46.472;30.760;2023-09-08T01:00:20;78613.91;;;-146.33
37414;BMP280;23279;46.472;30.760;2023-09-08T01:02:45;78613.91;;;-146.33
37414;BMP280;23279;46.472;30.760;2023-09-08T01:05:11;78609.84;;;-146.33
37414;BMP280;23279;46.472;30.760;2023-09-08T01:07:38;78618.00;;;-146.33
37414;BMP280;23279;46.472;30.760;2023-09-08T01:10:04;78618.00;;;-146.33
37414;BMP280;23279;46.472;30.760;2023-09-08T01:12:31;78622.06;;;-146.33
37414;BMP280;23279;46.472;30.760;2023-09-08T01:14:58;78618.00;;;-146.33
37414;BMP280;23279;46.472;30.760;2023-09-08T01:17:23;78634.28;;;-146.33
37414;BMP280;23279;46.472;30.760;2023-09-08T01:19:53;78642.41;;;-146.33
37414;BMP280;23279;46.472;30.760;2023-09-08T01:27:39;78654.63;;;-146.33
37414;BMP280;23279;46.472;30.760;2023-09-08T01:30:06;78652.59;;;-146.33
37414;BMP280;23279;46.472;30.760;2023-09-08T01:32:33;78658.69;;;-146.33
37414;BMP280;23279;46.472;30.760;2023-09-08T01:35:00;78658.69;;;-146.33
37414;BMP280;23279;46.472;30.760;2023-09-08T01:37:26;78666.84;;;-146.33
37414;BMP280;23279;46.472;30.760;2023-09-08T01:39:51;78674.97;;;-146.33
37414;BMP280;23279;46.472;30.760;2023-09-08T01:42:17;78679.06;;;-146.33
37414;BMP280;23279;46.472;30.760;2023-09-08T01:44:42;78685.16;;;-146.33
37414;BMP280;23279;46.472;30.760;2023-09-08T01:47:08;78695.34;;;-146.33
37414;BMP280;23279;46.472;30.760;2023-09-08T01:49:33;78691.25;;;-146.33
37414;BMP280;23279;46.472;30.760;2023-09-08T01:51:58;78695.34;;;-146.33
37414;BMP280;23279;46.472;30.760;2023-09-08T01:54:24;78689.22;;;-146.33
37414;BMP280;23279;46.472;30.760;2023-09-08T01:56:49;78691.25;;;-146.33
37414;BMP280;23279;46.472;30.760;2023-09-08T01:59:16;78687.19;;;-146.33
37414;BMP280;23279;46.472;30.760;2023-09-08T02:01:42;78695.34;;;-146.33
37414;BMP280;23279;46.472;30.760;2023-09-08T02:04:07;78705.50;;;-146.33
37414;BMP280;23279;46.472;30.760;2023-09-08T02:06:33;78691.25;;;-146.33
37414;BMP280;23279;46.472;30.760;2023-09-08T02:08:58;78715.69;;;-146.33
37414;BMP280;23279;46.472;30.760;2023-09-08T02:11:23;78715.69;;;-146.33
37414;BMP280;23279;46.472;30.760;2023-09-08T02:13:49;78713.66;;;-146.33
37414;BMP280;23279;46.472;30.760;2023-09-08T02:16:15;78705.50;;;-146.33
37414;BMP280;23279;46.472;30.760;2023-09-08T02:18:44;78711.63;;;-146.33
37414;BMP280;23279;46.472;30.760;2023-09-08T02:21:10;78705.50;;;-146.33
37414;BMP280;23279;46.472;30.760;2023-09-08T02:23:36;78707.56;;;-146.33
37414;BMP280;23279;46.472;30.760;2023-09-08T02:26:01;78709.59;;;-146.33
37414;BMP280;23279;46.472;30.760;2023-09-08T02:28:27;78717.72;;;-146.33
37414;BMP280;23279;46.472;30.760;2023-09-08T02:30:53;78736.03;;;-146.33
37414;BMP280;23279;46.472;30.760;2023-09-08T02:33:19;78727.91;;;-146.33
37414;BMP280;23279;46.472;30.760;2023-09-08T02:35:44;78725.88;;;-146.33
37414;BMP280;23279;46.472;30.760;2023-09-08T02:38:10;78727.91;;;-146.33
37414;BMP280;23279;46.472;30.760;2023-09-08T02:40:35;78731.97;;;-146.33
37414;BMP280;23279;46.472;30.760;2023-09-08T02:43:01;78750.28;;;-146.33
37414;BMP280;23279;46.472;30.760;2023-09-08T02:45:27;78750.28;;;-146.33
37414;BMP280;23279;46.472;30.760;2023-09-08T02:47:52;78736.03;;;-146.33
37414;BMP280;23279;46.472;30.760;2023-09-08T02:50:18;78727.91;;;-146.33
37414;BMP280;23279;46.472;30.760;2023-09-08T02:52:43;78742.16;;;-146.33
37414;BMP280;23279;46.472;30.760;2023-09-08T02:55:09;78734.00;;;-146.33
37414;BMP280;23279;46.472;30.760;2023-09-08T02:57:35;78723.84;;;-146.33
37414;BMP280;23279;46.472;30.760;2023-09-08T03:00:00;78750.28;;;-146.33
37414;BMP280;23279;46.472;30.760;2023-09-08T03:02:26;78766.56;;;-146.33
37414;BMP280;23279;46.472;30.760;2023-09-08T03:04:51;78744.19;;;-146.33
37414;BMP280;23279;46.472;30.760;2023-09-08T03:07:17;78744.19;;;-146.33
37414;BMP280;23279;46.472;30.760;2023-09-08T03:09:43;78740.13;;;-146.33
37414;BMP280;23279;46.472;30.760;2023-09-08T03:12:08;78723.84;;;-146.33
37414;BMP280;23279;46.472;30.760;2023-09-08T03:14:34;78725.88;;;-146.33
37414;BMP280;23279;46.472;30.760;2023-09-08T03:16:59;78727.91;;;-146.33
37414;BMP280;23279;46.472;30.760;2023-09-08T03:19:39;78727.91;;;-146.33
37414;BMP280;23279;46.472;30.760;2023-09-08T03:22:13;78715.69;;;-146.33
37414;BMP280;23279;46.472;30.760;2023-09-08T03:24:39;78719.75;;;-146.33
37414;BMP280;23279;46.472;30.760;2023-09-08T03:27:04;78754.38;;;-146.33
37414;BMP280;23279;46.472;30.760;2023-09-08T03:29:30;78744.19;;;-146.33
37414;BMP280;23279;46.472;30.760;2023-09-08T03:31:55;78780.81;;;-146.33
37414;BMP280;23279;46.472;30.760;2023-09-08T03:34:20;78756.41;;;-146.33
37414;BMP280;23279;46.472;30.760;2023-09-08T03:36:48;78740.13;;;-146.33
37414;BMP280;23279;46.472;30.760;2023-09-08T03:39:13;78740.13;;;-146.33
37414;BMP280;23279;46.472;30.760;2023-09-08T03:41:39;78740.13;;;-146.33
37414;BMP280;23279;46.472;30.760;2023-09-08T03:44:05;78731.97;;;-146.33
37414;BMP280;23279;46.472;30.760;2023-09-08T03:46:30;78756.41;;;-146.33
37414;BMP280;23279;46.472;30.760;2023-09-08T03:48:58;78750.28;;;-146.33
37414;BMP280;23279;46.472;30.760;2023-09-08T03:51:29;78764.53;;;-146.33
37414;BMP280;23279;46.472;30.760;2023-09-08T03:53:54;78776.75;;;-146.33
37414;BMP280;23279;46.472;30.760;2023-09-08T03:56:20;78766.56;;;-146.33
37414;BMP280;23279;46.472;30.760;2023-09-08T03:58:47;78784.91;;;-146.33
37414;BMP280;23279;46.472;30.760;2023-09-08T04:01:12;78776.75;;;-146.33
37414;BMP280;23279;46.472;30.760;2023-09-08T04:03:38;78776.75;;;-146.33
37414;BMP280;23279;46.472;30.760;2023-09-08T04:06:03;78768.63;;;-146.33
37414;BMP280;23279;46.472;30.760;2023-09-08T04:08:28;78768.63;;;-146.33
37414;BMP280;23279;46.472;30.760;2023-09-08T04:10:57;78756.41;;;-146.33
37414;BMP280;23279;46.472;30.760;2023-09-08T04:13:22;78748.25;;;-146.33
37414;BMP280;23279;46.472;30.760;2023-09-08T04:15:48;78744.19;;;-146.33
37414;BMP280;23279;46.472;30.760;2023-09-08T04:18:13;78740.13;;;-146.33
37414;BMP280;23279;46.472;30.760;2023-09-08T04:20:39;78721.81;;;-146.33
37414;BMP280;23279;46.472;30.760;2023-09-08T04:23:05;78734.00;;;-146.33
37414;BMP280;23279;46.472;30.760;2023-09-08T04:25:30;78754.38;;;-146.33
37414;BMP280;23279;46.472;30.760;2023-09-08T04:27:56;78762.50;;;-146.33
37414;BMP280;23279;46.472;30.760;2023-09-08T04:30:21;78764.53;;;-146.33
37414;BMP280;23279;46.472;30.760;2023-09-08T04:32:47;78758.44;;;-146.33
37414;BMP280;23279;46.472;30.760;2023-09-08T04:35:12;78766.56;;;-146.33
37414;BMP280;23279;46.472;30.760;2023-09-08T04:37:38;78754.38;;;-146.33
37414;BMP280;23279;46.472;30.760;2023-09-08T04:40:05;78776.75;;;-146.33
37414;BMP280;23279;46.472;30.760;2023-09-08T04:42:30;78756.41;;;-146.33
37414;BMP280;23279;46.472;30.760;2023-09-08T04:44:56;78760.47;;;-146.33
37414;BMP280;23279;46.472;30.760;2023-09-08T04:47:21;78760.47;;;-146.33
37414;BMP280;23279;46.472;30.760;2023-09-08T04:49:47;78758.44;;;-146.33
37414;BMP280;23279;46.472;30.760;2023-09-08T04:52:12;78731.97;;;-146.33
37414;BMP280;23279;46.472;30.760;2023-09-08T04:54:38;78721.81;;;-146.33
37414;BMP280;23279;46.472;30.760;2023-09-08T04:57:04;78691.25;;;-146.33
37414;BMP280;23279;46.472;30.760;2023-09-08T04:59:30;78670.91;;;-146.33
37414;BMP280;23279;46.472;30.760;2023-09-08T05:01:58;78636.31;;;-146.33
37414;BMP280;23279;46.472;30.760;2023-09-08T05:04:23;78613.91;;;-146.33
37414;BMP280;23279;46.472;30.760;2023-09-08T05:06:49;78595.59;;;-146.33
37414;BMP280;23279;46.472;30.760;2023-09-08T05:09:14;78589.50;;;-146.33
37414;BMP280;23279;46.472;30.760;2023-09-08T05:11:40;78599.69;;;-146.33
37414;BMP280;23279;46.472;30.760;2023-09-08T05:14:05;78589.50;;;-146.33
37414;BMP280;23279;46.472;30.760;2023-09-08T05:16:31;78550.81;;;-146.33
37414;BMP280;23279;46.472;30.760;2023-09-08T05:19:05;78546.75;;;-146.33
37414;BMP280;23279;46.472;30.760;2023-09-08T05:21:31;78518.25;;;-146.33
37414;BMP280;23279;46.472;30.760;2023-09-08T05:23:57;78538.63;;;-146.33
37414;BMP280;23279;46.472;30.760;2023-09-08T05:26:23;78497.91;;;-146.33
37414;BMP280;23279;46.472;30.760;2023-09-08T05:28:48;78506.06;;;-146.33
37414;BMP280;23279;46.472;30.760;2023-09-08T05:31:13;78512.16;;;-146.33
37414;BMP280;23279;46.472;30.760;2023-09-08T05:33:39;78459.25;;;-146.33
37414;BMP280;23279;46.472;30.760;2023-09-08T05:36:04;78471.44;;;-146.33
37414;BMP280;23279;46.472;30.760;2023-09-08T05:38:30;78426.69;;;-146.33
37414;BMP280;23279;46.472;30.760;2023-09-08T05:40:55;78390.03;;;-146.33
37414;BMP280;23279;46.472;30.760;2023-09-08T05:43:24;78363.59;;;-146.33
37414;BMP280;23279;46.472;30.760;2023-09-08T05:45:50;78337.13;;;-146.33
37414;BMP280;23279;46.472;30.760;2023-09-08T05:48:18;78329.00;;;-146.33
37414;BMP280;23279;46.472;30.760;2023-09-08T05:50:43;78361.56;;;-146.33
37414;BMP280;23279;46.472;30.760;2023-09-08T05:53:09;78320.84;;;-146.33
37414;BMP280;23279;46.472;30.760;2023-09-08T05:55:34;78249.63;;;-146.33
37414;BMP280;23279;46.472;30.760;2023-09-08T05:58:00;78263.88;;;-146.33
37414;BMP280;23279;46.472;30.760;2023-09-08T06:00:25;78316.78;;;-146.33
37414;BMP280;23279;46.472;30.760;2023-09-08T06:02:51;78324.91;;;-146.33
37414;BMP280;23279;46.472;30.760;2023-09-08T06:05:17;78369.69;;;-146.33
37414;BMP280;23279;46.472;30.760;2023-09-08T06:07:42;78406.31;;;-146.33
37414;BMP280;23279;46.472;30.760;2023-09-08T06:10:08;78404.28;;;-146.33
37414;BMP280;23279;46.472;30.760;2023-09-08T06:12:33;78434.81;;;-146.33
37414;BMP280;23279;46.472;30.760;2023-09-08T06:14:59;78412.44;;;-146.33
37414;BMP280;23279;46.472;30.760;2023-09-08T06:17:24;78414.47;;;-146.33
37414;BMP280;23279;46.472;30.760;2023-09-08T06:19:50;78424.66;;;-146.33
37414;BMP280;23279;46.472;30.760;2023-09-08T06:22:15;78418.53;;;-146.33
37414;BMP280;23279;46.472;30.760;2023-09-08T06:24:41;78430.75;;;-146.33
37414;BMP280;23279;46.472;30.760;2023-09-08T06:27:07;78436.84;;;-146.33
37414;BMP280;23279;46.472;30.760;2023-09-08T06:29:32;78438.91;;;-146.33
37414;BMP280;23279;46.472;30.760;2023-09-08T06:31:58;78451.09;;;-146.33
37414;BMP280;23279;46.472;30.760;2023-09-08T06:34:23;78459.25;;;-146.33
37414;BMP280;23279;46.472;30.760;2023-09-08T06:36:49;78442.97;;;-146.33
37414;BMP280;23279;46.472;30.760;2023-09-08T06:39:14;78442.97;;;-146.33
37414;BMP280;23279;46.472;30.760;2023-09-08T06:41:40;78461.28;;;-146.33
37414;BMP280;23279;46.472;30.760;2023-09-08T06:44:05;78459.25;;;-146.33
37414;BMP280;23279;46.472;30.760;2023-09-08T06:46:31;78461.28;;;-146.33
37414;BMP280;23279;46.472;30.760;2023-09-08T06:48:56;78459.25;;;-146.33
37414;BMP280;23279;46.472;30.760;2023-09-08T06:51:22;78440.94;;;-146.33
37414;BMP280;23279;46.472;30.760;2023-09-08T06:53:57;78416.50;;;-146.33
37414;BMP280;23279;46.472;30.760;2023-09-08T06:56:23;78410.41;;;-146.33
37414;BMP280;23279;46.472;30.760;2023-09-08T06:58:48;78422.59;;;-146.33
37414;BMP280;23279;46.472;30.760;2023-09-08T07:01:14;78390.03;;;-146.33
37414;BMP280;23279;46.472;30.760;2023-09-08T07:03:39;78377.84;;;-146.33
37414;BMP280;23279;46.472;30.760;2023-09-08T07:06:05;78373.75;;;-146.33
37414;BMP280;23279;46.472;30.760;2023-09-08T07:08:30;78365.63;;;-146.33
37414;BMP280;23279;46.472;30.760;2023-09-08T07:10:55;78357.47;;;-146.33
37414;BMP280;23279;46.472;30.760;2023-09-08T07:13:21;78353.41;;;-146.33
37414;BMP280;23279;46.472;30.760;2023-09-08T07:15:46;78357.47;;;-146.33
37414;BMP280;23279;46.472;30.760;2023-09-08T07:18:12;78367.66;;;-146.33
37414;BMP280;23279;46.472;30.760;2023-09-08T07:20:37;78371.72;;;-146.33
37414;BMP280;23279;46.472;30.760;2023-09-08T07:23:02;78341.19;;;-146.33
37414;BMP280;23279;46.472;30.760;2023-09-08T07:25:28;78312.72;;;-146.33
37414;BMP280;23279;46.472;30.760;2023-09-08T07:27:53;78329.00;;;-146.33
37414;BMP280;23279;46.472;30.760;2023-09-08T07:30:20;78339.16;;;-146.33
37414;BMP280;23279;46.472;30.760;2023-09-08T07:32:45;78339.16;;;-146.33
37414;BMP280;23279;46.472;30.760;2023-09-08T07:35:10;78306.59;;;-146.33
37414;BMP280;23279;46.472;30.760;2023-09-08T07:37:40;78292.34;;;-146.33
37414;BMP280;23279;46.472;30.760;2023-09-08T07:40:08;78286.25;;;-146.33
37414;BMP280;23279;46.472;30.760;2023-09-08T07:42:34;78298.47;;;-146.33
37414;BMP280;23279;46.472;30.760;2023-09-08T07:44:59;78300.50;;;-146.33
37414;BMP280;23279;46.472;30.760;2023-09-08T07:47:25;78276.06;;;-146.33
37414;BMP280;23279;46.472;30.760;2023-09-08T07:49:50;78253.69;;;-146.33
37414;BMP280;23279;46.472;30.760;2023-09-08T07:52:16;78267.94;;;-146.33
37414;BMP280;23279;46.472;30.760;2023-09-08T07:54:41;78282.19;;;-146.33
37414;BMP280;23279;46.472;30.760;2023-09-08T07:57:06;78288.28;;;-146.33
37414;BMP280;23279;46.472;30.760;2023-09-08T07:59:32;78284.22;;;-146.33
37414;BMP280;23279;46.472;30.760;2023-09-08T08:01:57;78253.69;;;-146.33
37414;BMP280;23279;46.472;30.760;2023-09-08T08:04:23;78263.88;;;-146.33
37414;BMP280;23279;46.472;30.760;2023-09-08T08:06:48;78229.28;;;-146.33
37414;BMP280;23279;46.472;30.760;2023-09-08T08:09:14;78219.09;;;-146.33
37414;BMP280;23279;46.472;30.760;2023-09-08T08:11:40;78198.75;;;-146.33
37414;BMP280;23279;46.472;30.760;2023-09-08T08:14:05;78156.00;;;-146.33
37414;BMP280;23279;46.472;30.760;2023-09-08T08:16:31;78133.63;;;-146.33
37414;BMP280;23279;46.472;30.760;2023-09-08T08:18:56;78137.69;;;-146.33
37414;BMP280;23279;46.472;30.760;2023-09-08T08:21:22;78178.41;;;-146.33
37414;BMP280;23279;46.472;30.760;2023-09-08T08:23:48;78198.75;;;-146.33
37414;BMP280;23279;46.472;30.760;2023-09-08T08:26:14;78190.59;;;-146.33
37414;BMP280;23279;46.472;30.760;2023-09-08T08:28:39;78153.97;;;-146.33
37414;BMP280;23279;46.472;30.760;2023-09-08T08:31:05;78162.13;;;-146.33
37414;BMP280;23279;46.472;30.760;2023-09-08T08:33:30;78166.19;;;-146.33
37414;BMP280;23279;46.472;30.760;2023-09-08T08:35:56;78143.81;;;-146.33
37414;BMP280;23279;46.472;30.760;2023-09-08T08:38:21;78111.25;;;-146.33
37414;BMP280;23279;46.472;30.760;2023-09-08T08:40:47;78082.75;;;-146.33
37414;BMP280;23279;46.472;30.760;2023-09-08T08:43:13;78078.69;;;-146.33
37414;BMP280;23279;46.472;30.760;2023-09-08T08:45:39;78078.69;;;-146.33
37414;BMP280;23279;46.472;30.760;2023-09-08T08:48:07;78088.84;;;-146.33
37414;BMP280;23279;46.472;30.760;2023-09-08T08:50:34;78078.69;;;-146.33
37414;BMP280;23279;46.472;30.760;2023-09-08T08:53:01;78054.25;;;-146.33
37414;BMP280;23279;46.472;30.760;2023-09-08T08:55:29;78040.03;;;-146.33
37414;BMP280;23279;46.472;30.760;2023-09-08T08:58:01;78044.09;;;-146.33
37414;BMP280;23279;46.472;30.760;2023-09-08T09:00:28;78011.53;;;-146.33
37414;BMP280;23279;46.472;30.760;2023-09-08T09:02:54;78003.38;;;-146.33
37414;BMP280;23279;46.472;30.760;2023-09-08T09:05:21;77993.22;;;-146.33
37414;BMP280;23279;46.472;30.760;2023-09-08T09:07:47;77995.25;;;-146.33
37414;BMP280;23279;46.472;30.760;2023-09-08T09:10:13;77968.78;;;-146.33
37414;BMP280;23279;46.472;30.760;2023-09-08T09:12:39;77972.88;;;-146.33
37414;BMP280;23279;46.472;30.760;2023-09-08T09:15:06;77950.47;;;-146.33
37414;BMP280;23279;46.472;30.760;2023-09-08T09:17:35;77930.13;;;-146.33
37414;BMP280;23279;46.472;30.760;2023-09-08T09:20:18;77932.16;;;-146.33
37414;BMP280;23279;46.472;30.760;2023-09-08T09:22:45;77922.00;;;-146.33
37414;BMP280;23279;46.472;30.760;2023-09-08T09:25:25;77942.34;;;-146.33
37414;BMP280;23279;46.472;30.760;2023-09-08T09:28:01;77930.13;;;-146.33
37414;BMP280;23279;46.472;30.760;2023-09-08T09:30:28;77934.19;;;-146.33
37414;BMP280;23279;46.472;30.760;2023-09-08T09:33:10;77913.84;;;-146.33
37414;BMP280;23279;46.472;30.760;2023-09-08T09:35:44;77885.38;;;-146.33
37414;BMP280;23279;46.472;30.760;2023-09-08T09:38:10;77893.50;;;-146.33
37414;BMP280;23279;46.472;30.760;2023-09-08T09:40:37;77887.41;;;-146.33
37414;BMP280;23279;46.472;30.760;2023-09-08T09:43:04;77909.78;;;-146.33
37414;BMP280;23279;46.472;30.760;2023-09-08T09:45:31;77881.31;;;-146.33
37414;BMP280;23279;46.472;30.760;2023-09-08T09:47:57;77891.47;;;-146.33
37414;BMP280;23279;46.472;30.760;2023-09-08T09:50:29;77893.50;;;-146.33
37414;BMP280;23279;46.472;30.760;2023-09-08T09:53:00;77862.97;;;-146.33
37414;BMP280;23279;46.472;30.760;2023-09-08T09:55:27;77826.34;;;-146.33
37414;BMP280;23279;46.472;30.760;2023-09-08T09:57:57;77856.88;;;-146.33
37414;BMP280;23279;46.472;30.760;2023-09-08T10:00:29;77828.41;;;-146.33
37414;BMP280;23279;46.472;30.760;2023-09-08T10:02:56;77816.19;;;-146.33
37414;BMP280;23279;46.472;30.760;2023-09-08T10:05:22;77799.91;;;-146.33
37414;BMP280;23279;46.472;30.760;2023-09-08T10:07:49;77820.25;;;-146.33
37414;BMP280;23279;46.472;30.760;2023-09-08T10:10:15;77803.97;;;-146.33
37414;BMP280;23279;46.472;30.760;2023-09-08T10:12:52;77791.78;;;-146.33
37414;BMP280;23279;46.472;30.760;2023-09-08T10:15:28;77820.25;;;-146.33
37414;BMP280;23279;46.472;30.760;2023-09-08T10:17:56;77783.63;;;-146.33
37414;BMP280;23279;46.472;30.760;2023-09-08T10:20:26;77783.63;;;-146.33
37414;BMP280;23279;46.472;30.760;2023-09-08T10:22:54;77791.78;;;-146.33
37414;BMP280;23279;46.472;30.760;2023-09-08T10:25:24;77812.13;;;-146.33
37414;BMP280;23279;46.472;30.760;2023-09-08T10:27:50;77771.41;;;-146.33
37414;BMP280;23279;46.472;30.760;2023-09-08T10:30:16;77759.22;;;-146.33
37414;BMP280;23279;46.472;30.760;2023-09-08T10:32:42;77775.50;;;-146.33
37414;BMP280;23279;46.472;30.760;2023-09-08T10:35:09;77787.69;;;-146.33
37414;BMP280;23279;46.472;30.760;2023-09-08T10:37:35;77779.56;;;-146.33
37414;BMP280;23279;46.472;30.760;2023-09-08T10:40:20;77773.44;;;-146.33
37414;BMP280;23279;46.472;30.760;2023-09-08T10:42:46;77734.78;;;-146.33
37414;BMP280;23279;46.472;30.760;2023-09-08T10:45:16;77706.31;;;-146.33
37414;BMP280;23279;46.472;30.760;2023-09-08T10:50:20;77694.09;;;-146.33
37414;BMP280;23279;46.472;30.760;2023-09-08T10:53:11;77726.66;;;-146.33
37414;BMP280;23279;46.472;30.760;2023-09-08T10:55:42;77720.56;;;-146.33
37414;BMP280;23279;46.472;30.760;2023-09-08T10:58:11;77722.59;;;-146.33
37414;BMP280;23279;46.472;30.760;2023-09-08T11:00:44;77692.06;;;-146.33
37414;BMP280;23279;46.472;30.760;2023-09-08T11:03:10;77712.41;;;-146.33
37414;BMP280;23279;46.472;30.760;2023-09-08T11:05:36;77704.28;;;-146.33
37414;BMP280;23279;46.472;30.760;2023-09-08T11:08:01;77706.31;;;-146.33
37414;BMP280;23279;46.472;30.760;2023-09-08T11:10:27;77706.31;;;-146.33
37414;BMP280;23279;46.472;30.760;2023-09-08T11:12:54;77702.25;;;-146.33
37414;BMP280;23279;46.472;30.760;2023-09-08T11:15:20;77688.00;;;-146.33
37414;BMP280;23279;46.472;30.760;2023-09-08T11:17:45;77852.81;;;-146.33
37414;BMP280;23279;46.472;30.760;2023-09-08T11:20:16;77785.66;;;-146.33
37414;BMP280;23279;46.472;30.760;2023-09-08T11:22:43;77775.50;;;-146.33
37414;BMP280;23279;46.472;30.760;2023-09-08T11:25:09;77801.94;;;-146.33
37414;BMP280;23279;46.472;30.760;2023-09-08T11:27:38;77759.22;;;-146.33
37414;BMP280;23279;46.472;30.760;2023-09-08T11:30:08;77742.94;;;-146.33
37414;BMP280;23279;46.472;30.760;2023-09-08T11:32:35;77791.78;;;-146.33
37414;BMP280;23279;46.472;30.760;2023-09-08T11:35:08;77854.84;;;-146.33
37414;BMP280;23279;46.472;30.760;2023-09-08T11:37:40;77783.63;;;-146.33
37414;BMP280;23279;46.472;30.760;2023-09-08T11:40:07;77728.69;;;-146.33
37414;BMP280;23279;46.472;30.760;2023-09-08T11:42:41;77767.34;;;-146.33
37414;BMP280;23279;46.472;30.760;2023-09-08T11:45:14;77812.13;;;-146.33
37414;BMP280;23279;46.472;30.760;2023-09-08T11:47:41;77830.44;;;-146.33
37414;BMP280;23279;46.472;30.760;2023-09-08T11:50:07;77830.44;;;-146.33
37414;BMP280;23279;46.472;30.760;2023-09-08T11:52:33;77846.72;;;-146.33
37414;BMP280;23279;46.472;30.760;2023-09-08T11:54:59;77858.91;;;-146.33
37414;BMP280;23279;46.472;30.760;2023-09-08T11:57:24;77848.75;;;-146.33
37414;BMP280;23279;46.472;30.760;2023-09-08T11:59:51;77787.69;;;-146.33
37414;BMP280;23279;46.472;30.760;2023-09-08T12:02:16;77797.88;;;-146.33
37414;BMP280;23279;46.472;30.760;2023-09-08T12:04:42;77806.00;;;-146.33
37414;BMP280;23279;46.472;30.760;2023-09-08T12:07:12;77793.81;;;-146.33
37414;BMP280;23279;46.472;30.760;2023-09-08T12:09:41;77728.69;;;-146.33
37414;BMP280;23279;46.472;30.760;2023-09-08T12:12:16;77708.34;;;-146.33
37414;BMP280;23279;46.472;30.760;2023-09-08T12:14:42;77694.09;;;-146.33
37414;BMP280;23279;46.472;30.760;2023-09-08T12:17:08;77761.25;;;-146.33
37414;BMP280;23279;46.472;30.760;2023-09-08T12:19:34;77669.69;;;-146.33
37414;BMP280;23279;46.472;30.760;2023-09-08T12:22:03;77755.16;;;-146.33
37414;BMP280;23279;46.472;30.760;2023-09-08T12:24:48;77761.25;;;-146.33
37414;BMP280;23279;46.472;30.760;2023-09-08T12:27:15;77747.00;;;-146.33
37414;BMP280;23279;46.472;30.760;2023-09-08T12:30:02;77669.69;;;-146.33
37414;BMP280;23279;46.472;30.760;2023-09-08T12:32:31;77706.31;;;-146.33
37414;BMP280;23279;46.472;30.760;2023-09-08T12:34:58;77724.63;;;-146.33
37414;BMP280;23279;46.472;30.760;2023-09-08T12:37:25;77722.59;;;-146.33
37414;BMP280;23279;46.472;30.760;2023-09-08T12:39:52;77714.44;;;-146.33
37414;BMP280;23279;46.472;30.760;2023-09-08T12:42:19;77791.78;;;-146.33
37414;BMP280;23279;46.472;30.760;2023-09-08T12:44:45;77860.94;;;-146.33
37414;BMP280;23279;46.472;30.760;2023-09-08T12:47:11;77767.34;;;-146.33
37414;BMP280;23279;46.472;30.760;2023-09-08T12:49:41;77767.34;;;-146.33
37414;BMP280;23279;46.472;30.760;2023-09-08T12:52:06;77714.44;;;-146.33
37414;BMP280;23279;46.472;30.760;2023-09-08T12:54:32;77716.47;;;-146.33
37414;BMP280;23279;46.472;30.760;2023-09-08T12:56:57;77641.19;;;-146.33
37414;BMP280;23279;46.472;30.760;2023-09-08T12:59:23;77728.69;;;-146.33
37414;BMP280;23279;46.472;30.760;2023-09-08T13:01:48;77763.28;;;-146.33
37414;BMP280;23279;46.472;30.760;2023-09-08T13:04:13;77777.53;;;-146.33
37414;BMP280;23279;46.472;30.760;2023-09-08T13:06:39;77771.41;;;-146.33
37414;BMP280;23279;46.472;30.760;2023-09-08T13:09:05;77714.44;;;-146.33
37414;BMP280;23279;46.472;30.760;2023-09-08T13:11:31;77781.59;;;-146.33
37414;BMP280;23279;46.472;30.760;2023-09-08T13:13:56;77708.34;;;-146.33
37414;BMP280;23279;46.472;30.760;2023-09-08T13:16:22;77722.59;;;-146.33
37414;BMP280;23279;46.472;30.760;2023-09-08T13:18:47;77747.00;;;-146.33
37414;BMP280;23279;46.472;30.760;2023-09-08T13:21:14;77767.34;;;-146.33
37414;BMP280;23279;46.472;30.760;2023-09-08T13:23:39;77775.50;;;-146.33
37414;BMP280;23279;46.472;30.760;2023-09-08T13:26:05;77749.03;;;-146.33
37414;BMP280;23279;46.472;30.760;2023-09-08T13:28:30;77698.16;;;-146.33
37414;BMP280;23279;46.472;30.760;2023-09-08T13:30:55;77767.34;;;-146.33
37414;BMP280;23279;46.472;30.760;2023-09-08T13:33:21;77753.09;;;-146.33
37414;BMP280;23279;46.472;30.760;2023-09-08T13:35:46;77785.66;;;-146.33
37414;BMP280;23279;46.472;30.760;2023-09-08T13:38:12;77777.53;;;-146.33